Time;durP1;ratioP1;P1;durP2;ratioP2;P2;SDS_P1;SDS_P2;PMS_P1;PMS_P2;Temp;Humidity;BMP_temperature;BMP_pressure;BME280_temperature;BME280_humidity;BME280_pressure;Samples;Min_cycle;Max_cycle;Signal;HPM_P1;HPM_P2
2022/08/19 00:02:24;;;;;;;3.63;3.33;;;20.10;93.00;;;;;;5079250;28;20390;-58
2022/08/19 00:04:52;;;;;;;4.13;3.72;;;20.10;93.10;;;;;;5083753;28;20487;-58
2022/08/19 00:07:18;;;;;;;3.58;3.25;;;20.00;93.20;;;;;;5083131;28;20497;-58
2022/08/19 00:09:44;;;;;;;4.28;3.42;;;20.00;93.30;;;;;;5078684;28;20032;-57
2022/08/19 00:12:10;;;;;;;4.13;3.38;;;20.00;93.40;;;;;;5075644;28;20028;-58
2022/08/19 00:14:36;;;;;;;3.75;3.42;;;19.90;93.40;;;;;;5069410;28;20032;-58
2022/08/19 00:17:02;;;;;;;3.65;3.35;;;19.90;93.50;;;;;;5073525;28;20033;-57
2022/08/19 00:19:28;;;;;;;4.18;3.78;;;19.90;93.60;;;;;;5073735;28;20024;-58
2022/08/19 00:21:55;;;;;;;5.18;4.68;;;19.80;93.70;;;;;;5074987;28;20527;-58
2022/08/19 00:24:20;;;;;;;5.18;4.75;;;19.80;93.70;;;;;;5073482;28;20489;-58
2022/08/19 00:26:46;;;;;;;4.40;4.00;;;19.70;93.80;;;;;;5074042;28;20075;-58
2022/08/19 00:29:14;;;;;;;4.07;3.78;;;19.70;93.90;;;;;;5076583;28;20098;-57
2022/08/19 00:31:41;;;;;;;4.32;3.92;;;19.70;94.00;;;;;;5078141;28;20065;-57
2022/08/19 00:34:07;;;;;;;4.15;3.75;;;19.60;94.00;;;;;;5072424;28;20482;-58
2022/08/19 00:36:32;;;;;;;3.95;3.65;;;19.50;94.10;;;;;;5079918;28;20017;-57
2022/08/19 00:38:59;;;;;;;4.20;3.80;;;19.60;94.20;;;;;;5078782;28;20097;-57
2022/08/19 00:41:25;;;;;;;4.50;4.13;;;19.50;94.30;;;;;;5082319;28;20044;-58
2022/08/19 00:44:08;;;;;;;4.68;4.28;;;19.50;94.30;;;;;;5078523;28;20081;-57
2022/08/19 00:46:36;;;;;;;5.50;5.00;;;19.50;94.20;;;;;;5080312;28;20040;-58
2022/08/19 00:49:14;;;;;;;5.63;5.13;;;19.50;94.40;;;;;;5076229;28;20119;-57
2022/08/19 00:51:42;;;;;;;4.82;4.38;;;19.50;94.50;;;;;;5080607;28;20542;-57
2022/08/19 00:54:08;;;;;;;4.70;4.30;;;19.40;94.60;;;;;;5074828;28;20032;-57
2022/08/19 00:56:35;;;;;;;3.88;3.47;;;19.40;94.70;;;;;;5078816;28;20015;-58
2022/08/19 00:59:01;;;;;;;3.55;3.20;;;19.40;94.90;;;;;;5075724;28;20012;-58
2022/08/19 01:01:27;;;;;;;3.45;2.50;;;19.30;95.00;;;;;;5082035;28;20020;-58
2022/08/19 01:03:53;;;;;;;2.97;2.60;;;19.30;95.10;;;;;;5088150;28;20039;-58
2022/08/19 01:06:18;;;;;;;1.98;1.67;;;19.20;95.20;;;;;;5079599;28;20027;-57
2022/08/19 01:08:44;;;;;;;1.73;1.63;;;19.20;95.40;;;;;;5084516;28;20671;-58
2022/08/19 01:11:12;;;;;;;2.28;2.00;;;19.10;95.50;;;;;;5081969;28;20086;-58
2022/08/19 01:13:37;;;;;;;3.35;2.55;;;19.10;95.50;;;;;;5072797;28;20032;-58
2022/08/19 01:16:10;;;;;;;2.90;2.70;;;19.10;95.60;;;;;;5075414;28;20028;-58
2022/08/19 01:18:40;;;;;;;3.60;3.30;;;19.10;95.60;;;;;;5082523;28;20545;-57
2022/08/19 01:21:15;;;;;;;4.35;3.95;;;19.10;95.60;;;;;;5076762;28;20027;-58
2022/08/19 01:23:44;;;;;;;4.13;3.72;;;19.10;95.60;;;;;;5075046;28;20024;-58
2022/08/19 01:26:15;;;;;;;3.38;3.08;;;19.00;95.60;;;;;;5086468;28;20046;-59
2022/08/19 01:28:41;;;;;;;3.85;3.55;;;19.00;95.70;;;;;;5082523;28;20035;-57
2022/08/19 01:31:13;;;;;;;3.13;2.83;;;19.00;95.70;;;;;;5092204;28;20024;-58
2022/08/19 01:33:39;;;;;;;3.28;2.97;;;18.90;95.80;;;;;;5081543;28;20083;-58
2022/08/19 01:36:08;;;;;;;4.30;3.90;;;18.90;95.90;;;;;;5074547;28;20934;-57
2022/08/19 01:38:36;;;;;;;;;;;18.90;95.90;;;;;;5079473;28;20380;-56
2022/08/19 01:41:02;;;;;;;4.78;4.28;;;18.80;95.90;;;;;;5084015;28;19966;-58
2022/08/19 01:43:27;;;;;;;5.10;4.45;;;18.70;96.20;;;;;;5086225;28;20060;-58
2022/08/19 01:45:53;;;;;;;5.35;4.85;;;18.70;96.20;;;;;;5088216;28;20036;-58
2022/08/19 01:48:19;;;;;;;4.72;4.32;;;18.70;96.20;;;;;;5078381;28;20012;-58
2022/08/19 01:50:45;;;;;;;5.05;4.65;;;18.70;96.10;;;;;;5084216;28;20036;-57
2022/08/19 01:53:11;;;;;;;5.95;5.43;;;18.70;96.10;;;;;;5079967;28;20062;-58
2022/08/19 01:55:39;;;;;;;6.68;5.97;;;18.70;96.20;;;;;;5073384;28;20074;-58
2022/08/19 01:58:13;;;;;;;5.65;5.18;;;18.70;96.20;;;;;;5075348;28;20036;-58
2022/08/19 02:00:38;;;;;;;3.30;2.67;;;18.70;96.30;;;;;;5089950;28;20051;-58
2022/08/19 02:03:04;;;;;;;2.05;1.85;;;18.70;96.40;;;;;;5079048;28;20558;-58
2022/08/19 02:05:30;;;;;;;3.45;3.15;;;18.60;96.50;;;;;;5077669;28;20029;-57
2022/08/19 02:07:56;;;;;;;3.17;2.88;;;18.50;96.60;;;;;;5078830;28;20477;-58
2022/08/19 02:10:22;;;;;;;2.42;2.22;;;18.50;96.70;;;;;;5080893;28;20016;-58
2022/08/19 02:12:49;;;;;;;2.15;1.95;;;18.50;96.70;;;;;;5079719;28;20359;-58
2022/08/19 02:15:15;;;;;;;3.00;2.70;;;18.50;96.70;;;;;;5076615;28;20517;-57
2022/08/19 02:17:41;;;;;;;4.07;3.25;;;18.50;96.80;;;;;;5077839;28;20192;-58
2022/08/19 02:20:07;;;;;;;4.03;3.28;;;18.40;96.90;;;;;;5078206;28;20474;-58
2022/08/19 02:22:33;;;;;;;3.63;3.03;;;18.30;97.10;;;;;;5084104;28;20036;-58
2022/08/19 02:24:58;;;;;;;3.80;3.47;;;18.30;97.20;;;;;;5074678;28;20041;-56
2022/08/19 02:27:25;;;;;;;3.28;2.97;;;18.30;97.30;;;;;;5073193;28;20040;-58
2022/08/19 02:29:51;;;;;;;7.53;3.10;;;18.30;97.30;;;;;;5077828;28;20039;-58
2022/08/19 02:32:19;;;;;;;9.82;3.35;;;18.20;97.30;;;;;;5079056;28;20060;-58
2022/08/19 02:34:45;;;;;;;4.45;3.97;;;18.20;97.30;;;;;;5075686;28;20020;-58
2022/08/19 02:38:25;;;;;;;12.38;4.57;;;18.20;97.40;;;;;;5075529;28;20023;-57
2022/08/19 02:39:57;;;;;;;4.82;3.70;;;18.20;97.50;;;;;;5079123;28;20035;-56
2022/08/19 02:42:22;;;;;;;5.38;3.72;;;18.10;97.50;;;;;;5079021;28;20422;-57
2022/08/19 02:44:48;;;;;;;13.80;4.10;;;18.10;97.50;;;;;;5087975;28;20546;-57
2022/08/19 02:47:14;;;;;;;9.85;4.25;;;18.10;97.60;;;;;;5080806;28;20490;-58
2022/08/19 02:49:40;;;;;;;15.57;4.28;;;18.10;97.70;;;;;;5079872;28;20033;-57
2022/08/19 02:52:06;;;;;;;14.20;3.50;;;18.10;97.80;;;;;;5083021;28;20593;-58
2022/08/19 02:54:31;;;;;;;7.30;3.42;;;18.10;97.90;;;;;;5077636;28;20016;-57
2022/08/19 02:56:57;;;;;;;4.93;3.97;;;18.10;98.00;;;;;;5077070;28;20378;-57
2022/08/19 02:59:22;;;;;;;6.40;4.28;;;18.10;98.10;;;;;;5075240;28;20047;-58
2022/08/19 03:01:48;;;;;;;6.75;3.63;;;18.00;98.10;;;;;;5081681;28;20035;-57
2022/08/19 03:04:15;;;;;;;3.60;3.30;;;18.00;98.20;;;;;;5078162;28;20454;-57
2022/08/19 03:06:43;;;;;;;3.75;3.35;;;18.00;98.20;;;;;;5079273;28;20033;-57
2022/08/19 03:09:09;;;;;;;4.03;3.72;;;18.00;98.30;;;;;;5074415;28;20021;-58
2022/08/19 03:11:35;;;;;;;4.63;4.22;;;18.00;98.30;;;;;;5079785;28;20020;-57
2022/08/19 03:14:02;;;;;;;4.22;3.83;;;18.00;98.30;;;;;;5071945;28;20024;-58
2022/08/19 03:16:30;;;;;;;4.35;3.95;;;18.00;98.30;;;;;;5077648;28;20021;-56
2022/08/19 03:18:59;;;;;;;6.18;4.72;;;17.90;98.30;;;;;;5081537;28;20468;-57
2022/08/19 03:21:27;;;;;;;5.43;4.93;;;17.90;98.30;;;;;;5078158;28;20078;-58
2022/08/19 03:23:58;;;;;;;4.80;4.40;;;17.90;98.40;;;;;;5076192;28;20113;-58
2022/08/19 03:26:23;;;;;;;4.97;4.57;;;17.90;98.40;;;;;;5069080;28;20393;-56
2022/08/19 03:28:49;;;;;;;4.72;3.13;;;17.80;98.40;;;;;;5085777;28;20020;-57
2022/08/19 03:31:17;;;;;;;11.38;3.20;;;17.80;98.50;;;;;;5071518;28;20025;-57
2022/08/19 03:33:44;;;;;;;2.60;2.40;;;17.70;98.60;;;;;;5077583;28;20055;-58
2022/08/19 03:36:15;;;;;;;4.55;4.15;;;17.70;98.70;;;;;;5076084;28;20450;-58
2022/08/19 03:38:44;;;;;;;8.68;4.55;;;17.60;98.70;;;;;;5078608;28;20368;-55
2022/08/19 03:41:18;;;;;;;14.70;5.60;;;17.60;98.90;;;;;;5080934;28;20052;-57
2022/08/19 03:43:46;;;;;;;14.93;5.82;;;17.60;98.90;;;;;;5080656;28;20117;-57
2022/08/19 03:46:15;;;;;;;18.25;6.63;;;17.60;98.90;;;;;;5076047;28;20392;-57
2022/08/19 03:48:42;;;;;;;12.57;6.40;;;17.70;99.00;;;;;;5073666;28;20020;-57
2022/08/19 03:51:15;;;;;;;21.00;6.47;;;17.70;99.00;;;;;;5077264;28;20490;-57
2022/08/19 03:53:40;;;;;;;21.60;6.53;;;17.70;99.10;;;;;;5079309;28;20032;-59
2022/08/19 03:56:09;;;;;;;20.73;6.35;;;17.70;99.20;;;;;;5071401;28;20032;-57
2022/08/19 03:58:34;;;;;;;26.20;6.03;;;17.70;99.20;;;;;;5081822;28;20020;-57
2022/08/19 04:01:00;;;;;;;19.80;5.75;;;17.60;99.30;;;;;;5071272;28;20044;-58
2022/08/19 04:03:26;;;;;;;10.05;6.03;;;17.60;99.40;;;;;;5078452;28;20097;-58
2022/08/19 04:05:53;;;;;;;8.50;5.15;;;17.60;99.50;;;;;;5075961;28;20035;-57
2022/08/19 04:08:22;;;;;;;5.97;5.35;;;17.60;99.60;;;;;;5072288;28;20032;-57
2022/08/19 04:10:48;;;;;;;15.93;5.73;;;17.60;99.60;;;;;;5079554;28;20095;-57
2022/08/19 04:13:16;;;;;;;8.43;5.20;;;17.60;99.70;;;;;;5085777;28;20311;-57
2022/08/19 04:15:43;;;;;;;5.65;4.65;;;17.60;99.80;;;;;;5082743;28;20688;-58
2022/08/19 04:18:10;;;;;;;9.73;6.97;;;17.60;99.80;;;;;;5085610;28;20387;-56
2022/08/19 04:20:47;;;;;;;9.65;8.68;;;17.50;99.90;;;;;;5074788;28;20025;-57
2022/08/19 04:23:14;;;;;;;6.88;6.28;;;17.50;99.90;;;;;;5088900;28;20031;-58
2022/08/19 04:25:42;;;;;;;7.35;5.35;;;17.30;99.90;;;;;;5088987;28;20489;-57
2022/08/19 04:28:10;;;;;;;8.15;7.45;;;17.30;99.90;;;;;;5077778;28;20049;-57
2022/08/19 04:30:44;;;;;;;6.97;6.13;;;17.30;99.90;;;;;;5080293;28;20031;-58
2022/08/19 04:33:11;;;;;;;5.18;4.78;;;17.30;99.90;;;;;;5078641;28;20390;-58
2022/08/19 04:35:43;;;;;;;9.63;6.75;;;17.30;99.90;;;;;;5077121;28;20028;-58
2022/08/19 04:38:09;;;;;;;5.68;5.18;;;17.30;99.90;;;;;;5078266;28;20050;-58
2022/08/19 04:43:25;;;;;;;8.38;4.38;;;17.30;99.90;;;;;;5083032;28;20401;-57
2022/08/19 04:45:51;;;;;;;5.05;4.60;;;17.20;99.90;;;;;;5080324;28;20028;-57
2022/08/19 04:48:25;;;;;;;12.00;5.13;;;17.30;99.90;;;;;;5078305;28;20017;-58
2022/08/19 04:50:57;;;;;;;19.02;6.10;;;17.30;99.90;;;;;;5089622;28;20020;-57
2022/08/19 04:53:23;;;;;;;20.65;6.63;;;17.30;99.90;;;;;;5076353;28;20146;-57
2022/08/19 04:55:49;;;;;;;20.38;7.10;;;17.30;99.90;;;;;;5083002;28;20066;-57
2022/08/19 04:58:16;;;;;;;12.25;7.30;;;17.30;99.90;;;;;;5085322;28;20704;-57
2022/08/19 05:00:41;;;;;;;14.95;7.78;;;17.40;99.90;;;;;;5093311;28;20043;-57
2022/08/19 05:03:07;;;;;;;18.98;8.52;;;17.40;99.90;;;;;;5093257;28;20416;-57
2022/08/19 05:05:32;;;;;;;26.52;9.48;;;17.40;99.90;;;;;;5095119;28;20095;-56
2022/08/19 05:07:58;;;;;;;38.97;8.98;;;17.40;99.90;;;;;;5093766;28;20466;-56
2022/08/19 05:10:23;;;;;;;24.52;9.00;;;17.40;99.90;;;;;;5095247;28;20016;-57
2022/08/19 05:12:49;;;;;;;29.27;12.10;;;17.40;99.90;;;;;;5093628;28;20052;-57
2022/08/19 05:15:14;;;;;;;28.00;11.48;;;17.40;99.90;;;;;;5094930;28;20020;-57
2022/08/19 05:22:31;;;;;;;17.65;11.27;;;17.30;99.90;;;;;;5094899;28;20062;-56
2022/08/19 05:23:11;;;;;;;18.52;8.88;;;17.30;99.90;;;;;;5086906;28;20027;-56
2022/08/19 05:25:39;;;;;;;19.10;8.90;;;17.20;99.90;;;;;;5086299;28;20020;-57
2022/08/19 05:28:05;;;;;;;14.05;11.50;;;17.30;99.90;;;;;;5094377;28;20091;-57
2022/08/19 05:30:32;;;;;;;12.65;9.88;;;17.20;99.90;;;;;;5082122;28;20154;-56
2022/08/19 05:32:57;;;;;;;15.40;9.75;;;17.30;99.90;;;;;;5082377;28;20012;-56
2022/08/19 05:35:23;;;;;;;11.57;9.80;;;17.30;99.90;;;;;;5081155;28;20032;-57
2022/08/19 05:37:49;;;;;;;11.23;10.13;;;17.30;99.90;;;;;;5094477;28;20046;-57
2022/08/19 05:40:15;;;;;;;13.43;10.73;;;17.40;99.90;;;;;;5094451;28;20067;-57
2022/08/19 05:42:40;;;;;;;11.68;10.52;;;17.40;99.90;;;;;;5098742;28;20051;-56
2022/08/19 05:45:07;;;;;;;14.88;13.13;;;17.40;99.90;;;;;;5094582;28;20027;-57
2022/08/19 05:47:32;;;;;;;22.88;16.45;;;17.50;99.90;;;;;;5094495;28;20028;-56
2022/08/19 05:49:58;;;;;;;17.13;15.13;;;17.50;99.90;;;;;;5092840;28;20034;-57
2022/08/19 05:52:23;;;;;;;18.33;14.77;;;17.60;99.90;;;;;;5089544;28;20055;-57
2022/08/19 05:54:50;;;;;;;22.40;18.42;;;17.70;99.90;;;;;;5094099;28;20032;-56
2022/08/19 05:57:16;;;;;;;22.38;18.75;;;17.70;99.90;;;;;;5094260;28;20560;-57
2022/08/19 05:59:43;;;;;;;25.65;20.17;;;17.80;99.90;;;;;;5094108;28;20060;-57
2022/08/19 06:02:11;;;;;;;25.42;21.02;;;17.90;99.90;;;;;;5094086;28;20081;-57
2022/08/19 06:04:37;;;;;;;25.80;21.83;;;18.00;99.90;;;;;;5093936;28;20056;-58
2022/08/19 06:07:03;;;;;;;26.02;22.63;;;18.00;99.90;;;;;;5092808;28;20051;-57
2022/08/19 06:09:29;;;;;;;24.45;20.52;;;18.10;99.90;;;;;;5092603;28;20474;-57
2022/08/19 06:11:59;;;;;;;27.92;22.05;;;18.20;99.90;;;;;;5091566;28;20027;-56
2022/08/19 06:14:29;;;;;;;32.75;25.73;;;18.20;99.90;;;;;;5093978;28;20047;-57
2022/08/19 06:16:55;;;;;;;34.28;26.77;;;18.20;99.90;;;;;;5081952;28;20393;-57
2022/08/19 06:19:23;;;;;;;31.67;24.65;;;18.20;99.90;;;;;;5093461;28;20517;-57
2022/08/19 06:21:51;;;;;;;32.47;23.27;;;18.30;99.90;;;;;;5093957;28;20478;-57
2022/08/19 06:24:25;;;;;;;35.13;25.17;;;18.30;99.90;;;;;;5091452;28;20020;-58
2022/08/19 06:26:53;;;;;;;33.10;24.70;;;18.40;99.90;;;;;;5092239;28;20024;-56
2022/08/19 06:29:21;;;;;;;37.67;27.35;;;18.40;99.90;;;;;;5093502;28;20012;-57
2022/08/19 06:31:49;;;;;;;34.90;25.67;;;18.40;99.90;;;;;;5093465;28;20039;-57
2022/08/19 06:34:15;;;;;;;42.08;30.17;;;18.50;99.90;;;;;;5093406;28;20020;-57
2022/08/19 06:36:44;;;;;;;35.83;26.50;;;18.50;99.90;;;;;;5092824;28;20051;-58
2022/08/19 06:39:24;;;;;;;33.65;24.73;;;18.50;99.90;;;;;;5093241;28;20028;-57
2022/08/19 06:41:52;;;;;;;36.65;28.65;;;18.60;99.90;;;;;;5085507;28;20063;-57
2022/08/19 06:44:20;;;;;;;43.67;31.02;;;18.60;99.90;;;;;;5091896;28;20402;-57
2022/08/19 06:46:46;;;;;;;37.35;27.85;;;18.60;99.90;;;;;;5088044;28;20079;-58
2022/08/19 06:49:13;;;;;;;34.45;25.88;;;18.70;99.90;;;;;;5091290;28;20070;-58
2022/08/19 06:51:41;;;;;;;38.63;26.80;;;18.70;99.90;;;;;;5088126;28;20016;-57
2022/08/19 06:54:07;;;;;;;45.50;32.70;;;18.80;99.90;;;;;;5091489;28;20043;-57
2022/08/19 06:56:35;;;;;;;40.97;30.25;;;18.80;99.90;;;;;;5091746;28;20054;-58
2022/08/19 06:59:03;;;;;;;40.75;27.77;;;18.90;99.90;;;;;;5091508;28;20039;-57
2022/08/19 07:01:29;;;;;;;38.88;29.85;;;18.90;99.90;;;;;;5090115;28;20111;-57
2022/08/19 07:03:56;;;;;;;39.22;30.33;;;19.00;99.90;;;;;;5083070;28;20123;-57
2022/08/19 07:06:21;;;;;;;40.60;29.73;;;19.10;99.90;;;;;;5091909;28;20052;-57
2022/08/19 07:08:47;;;;;;;40.47;29.95;;;19.10;99.90;;;;;;5074648;28;20067;-56
2022/08/19 07:11:17;;;;;;;38.83;28.65;;;19.20;99.90;;;;;;5090197;28;20445;-57
2022/08/19 07:13:43;;;;;;;44.55;32.85;;;19.20;99.90;;;;;;5092819;28;20532;-57
2022/08/19 07:16:19;;;;;;;48.35;35.58;;;19.30;99.90;;;;;;5087739;28;20107;-57
2022/08/19 07:18:46;;;;;;;49.55;35.65;;;19.40;99.90;;;;;;5082518;28;20032;-57
2022/08/19 07:21:18;;;;;;;50.22;35.33;;;19.40;99.90;;;;;;5079099;28;20485;-57
2022/08/19 07:23:44;;;;;;;49.17;36.38;;;19.50;99.90;;;;;;5091153;28;20107;-57
2022/08/19 07:26:14;;;;;;;50.67;35.20;;;19.60;99.90;;;;;;5092666;28;20081;-57
2022/08/19 07:28:40;;;;;;;51.70;36.72;;;19.70;99.90;;;;;;5084887;28;20111;-57
2022/08/19 07:31:07;;;;;;;45.65;34.70;;;19.80;99.90;;;;;;5089970;28;20020;-57
2022/08/19 07:33:36;;;;;;;51.78;37.67;;;19.90;99.90;;;;;;5091046;28;20495;-56
2022/08/19 07:36:06;;;;;;;48.10;37.17;;;20.00;99.90;;;;;;5090850;28;20047;-57
2022/08/19 07:38:32;;;;;;;46.88;34.67;;;20.10;99.90;;;;;;5086974;28;20489;-57
2022/08/19 07:40:58;;;;;;;51.92;36.67;;;20.10;99.90;;;;;;5088705;28;21085;-57
2022/08/19 07:43:25;;;;;;;44.53;30.98;;;20.10;99.90;;;;;;5084108;28;20039;-57
2022/08/19 07:45:56;;;;;;;45.13;30.85;;;20.20;99.90;;;;;;5090705;28;20097;-57
2022/08/19 07:48:26;;;;;;;48.22;33.25;;;20.20;99.90;;;;;;5090691;28;20520;-58
2022/08/19 07:50:57;;;;;;;41.08;28.33;;;20.20;99.90;;;;;;5090954;28;20047;-57
2022/08/19 07:53:24;;;;;;;38.63;28.52;;;20.30;99.90;;;;;;5087990;28;20104;-57
2022/08/19 07:55:50;;;;;;;36.40;27.90;;;20.40;99.90;;;;;;5089725;28;20450;-57
2022/08/19 07:58:19;;;;;;;40.35;25.75;;;20.40;99.80;;;;;;5089721;28;20028;-57
2022/08/19 08:00:47;;;;;;;36.70;28.17;;;20.50;99.70;;;;;;5086183;28;20029;-57
2022/08/19 08:03:14;;;;;;;56.20;40.97;;;20.50;99.60;;;;;;5084961;28;20024;-57
2022/08/19 08:11:08;;;;;;;45.50;31.63;;;20.50;99.50;;;;;;5083272;28;20070;-57
2022/08/19 08:13:35;;;;;;;42.38;29.48;;;20.50;99.60;;;;;;5091966;28;20478;-57
2022/08/19 08:16:02;;;;;;;38.80;27.38;;;20.50;99.50;;;;;;5082032;28;20032;-57
2022/08/19 08:18:28;;;;;;;35.33;25.38;;;20.60;99.40;;;;;;5078339;28;20029;-57
2022/08/19 08:20:54;;;;;;;43.25;30.08;;;20.70;99.40;;;;;;5092211;28;20028;-57
2022/08/19 08:23:24;;;;;;;35.72;27.65;;;20.70;99.10;;;;;;5075652;28;20031;-57
2022/08/19 08:25:52;;;;;;;40.15;26.70;;;20.70;98.90;;;;;;5073660;28;20115;-58
2022/08/19 08:28:17;;;;;;;38.08;27.88;;;20.80;99.10;;;;;;5088274;28;20026;-58
2022/08/19 08:30:47;;;;;;;47.25;33.78;;;20.90;98.70;;;;;;5091834;28;20026;-58
2022/08/19 08:33:13;;;;;;;39.47;28.33;;;20.90;98.50;;;;;;5086896;28;20023;-58
2022/08/19 08:35:41;;;;;;;34.03;24.83;;;20.90;98.50;;;;;;5086554;28;20117;-58
2022/08/19 08:38:07;;;;;;;35.58;25.50;;;21.00;98.40;;;;;;5091928;28;20020;-57
2022/08/19 08:40:41;;;;;;;33.30;23.08;;;21.10;98.40;;;;;;5091643;28;20047;-57
2022/08/19 08:43:15;;;;;;;27.98;20.48;;;21.30;98.20;;;;;;5079618;28;20432;-57
2022/08/19 08:45:51;;;;;;;30.63;22.05;;;21.40;98.10;;;;;;5087446;28;20489;-57
2022/08/19 08:49:00;;;;;;;29.73;22.30;;;21.60;97.80;;;;;;5087658;28;20085;-57
2022/08/19 08:51:32;;;;;;;32.63;22.35;;;21.70;97.40;;;;;;5069302;28;20032;-57
2022/08/19 08:53:59;;;;;;;27.27;20.67;;;21.80;97.30;;;;;;5087260;28;20020;-57
2022/08/19 08:56:25;;;;;;;28.25;20.60;;;21.90;97.10;;;;;;5089778;28;20136;-57
2022/08/19 08:59:22;;;;;;;32.78;21.92;;;21.90;96.90;;;;;;5086984;28;20473;-58
2022/08/19 09:01:48;;;;;;;31.58;24.45;;;22.10;96.70;;;;;;5086122;28;20036;-57
2022/08/19 09:04:14;;;;;;;28.55;22.48;;;22.20;96.60;;;;;;5094161;28;20028;-57
2022/08/19 09:06:58;;;;;;;28.73;22.20;;;22.30;96.30;;;;;;5093663;28;20024;-57
2022/08/19 09:09:39;;;;;;;25.23;20.48;;;22.50;96.20;;;;;;5091821;28;20157;-57
2022/08/19 09:12:23;;;;;;;29.58;21.27;;;22.60;95.90;;;;;;5092392;28;20048;-58
2022/08/19 09:15:05;;;;;;;30.73;21.33;;;22.80;95.50;;;;;;5085488;28;20103;-57
2022/08/19 09:17:33;;;;;;;24.10;19.45;;;22.90;95.00;;;;;;5100509;28;20034;-57
2022/08/19 09:20:06;;;;;;;28.25;20.77;;;22.90;94.90;;;;;;5091042;28;20024;-58
2022/08/19 09:22:32;;;;;;;25.63;19.67;;;22.90;94.60;;;;;;5085329;28;20064;-57
2022/08/19 09:24:57;;;;;;;25.77;20.30;;;22.90;94.50;;;;;;5091446;28;20048;-57
2022/08/19 09:27:25;;;;;;;19.85;16.60;;;22.90;94.10;;;;;;5079617;28;20024;-58
2022/08/19 09:29:51;;;;;;;20.48;16.13;;;22.80;94.10;;;;;;5081113;28;20017;-57
2022/08/19 09:32:17;;;;;;;22.77;17.77;;;22.80;94.00;;;;;;5088560;28;20013;-58
2022/08/19 09:34:43;;;;;;;21.58;16.83;;;22.70;93.80;;;;;;5081835;28;20098;-58
2022/08/19 09:37:09;;;;;;;19.98;15.50;;;22.60;94.00;;;;;;5094570;28;20074;-58
2022/08/19 09:39:35;;;;;;;18.40;15.05;;;22.60;93.90;;;;;;5094156;28;20047;-57
2022/08/19 09:42:00;;;;;;;18.55;15.13;;;22.50;93.80;;;;;;5093209;28;20048;-58
2022/08/19 09:44:26;;;;;;;18.67;15.15;;;22.60;93.70;;;;;;5093306;28;20028;-57
2022/08/19 09:46:51;;;;;;;18.42;15.25;;;22.60;93.50;;;;;;5091532;28;20013;-57
2022/08/19 09:49:21;;;;;;;24.52;16.83;;;22.60;93.40;;;;;;5092964;28;20043;-57
2022/08/19 09:51:50;;;;;;;24.90;18.70;;;22.60;93.40;;;;;;5093208;28;20028;-57
2022/08/19 09:54:16;;;;;;;21.58;16.52;;;22.60;93.30;;;;;;5090764;28;20028;-57
2022/08/19 09:56:41;;;;;;;21.17;16.80;;;22.60;93.30;;;;;;5083865;28;20025;-57
2022/08/19 09:59:07;;;;;;;20.30;15.73;;;22.70;93.20;;;;;;5074595;28;20036;-57
2022/08/19 10:01:33;;;;;;;20.02;16.40;;;22.90;93.00;;;;;;5085348;28;20428;-58
2022/08/19 10:04:01;;;;;;;20.10;15.73;;;23.00;92.40;;;;;;5078454;28;20449;-57
2022/08/19 10:06:33;;;;;;;17.23;14.80;;;23.10;91.90;;;;;;5085711;28;20562;-58
2022/08/19 10:08:59;;;;;;;17.15;15.00;;;23.00;92.00;;;;;;5088963;28;20077;-57
2022/08/19 10:11:26;;;;;;;20.48;16.17;;;23.00;92.00;;;;;;5091696;28;20020;-57
2022/08/19 10:13:52;;;;;;;20.27;14.95;;;23.10;91.60;;;;;;5082808;28;20440;-57
2022/08/19 10:16:22;;;;;;;15.63;13.50;;;23.20;91.40;;;;;;5089293;28;20055;-57
2022/08/19 10:18:48;;;;;;;20.25;15.95;;;23.40;91.20;;;;;;5090044;28;20100;-58
2022/08/19 10:21:26;;;;;;;18.15;14.77;;;23.40;90.80;;;;;;5092531;28;20016;-57
2022/08/19 10:23:56;;;;;;;18.98;15.82;;;23.60;90.70;;;;;;5093095;28;20032;-55
2022/08/19 10:26:24;;;;;;;;;;;23.80;90.30;;;;;;5092893;28;20024;-58
2022/08/19 10:28:50;;;;;;;15.70;12.75;;;23.80;90.30;;;;;;5091206;28;19912;-57
2022/08/19 10:31:30;;;;;;;17.35;14.55;;;24.00;90.20;;;;;;5092953;28;20031;-58
2022/08/19 10:33:59;;;;;;;15.73;12.88;;;24.20;89.10;;;;;;5088139;28;20017;-57
2022/08/19 10:36:28;;;;;;;18.20;14.93;;;24.30;88.60;;;;;;5093085;28;20085;-57
2022/08/19 10:38:58;;;;;;;20.63;16.20;;;24.30;87.90;;;;;;5092479;28;20033;-58
2022/08/19 10:41:26;;;;;;;18.92;14.13;;;24.30;88.00;;;;;;5092249;28;20048;-58
2022/08/19 10:43:54;;;;;;;20.05;14.77;;;24.40;88.10;;;;;;5090068;28;20028;-57
2022/08/19 10:46:21;;;;;;;14.13;12.63;;;24.50;87.70;;;;;;5080200;28;20020;-58
2022/08/19 10:48:46;;;;;;;14.40;12.70;;;24.60;87.10;;;;;;5091048;28;20123;-57
2022/08/19 10:53:57;;;;;;;17.08;12.77;;;24.90;86.00;;;;;;5088531;28;20119;-58
2022/08/19 10:59:07;;;;;;;16.00;12.55;;;24.90;85.30;;;;;;5093260;28;20035;-57
2022/08/19 11:01:34;;;;;;;19.77;16.42;;;25.10;85.30;;;;;;5090972;28;20028;-57
2022/08/19 11:04:02;;;;;;;15.85;13.27;;;25.00;83.50;;;;;;5088824;28;20034;-58
2022/08/19 11:06:27;;;;;;;16.52;12.75;;;24.90;84.30;;;;;;5091265;28;20036;-57
2022/08/19 11:08:54;;;;;;;15.05;12.85;;;24.90;84.40;;;;;;5081584;28;20020;-58
2022/08/19 11:11:21;;;;;;;15.65;13.20;;;24.90;84.70;;;;;;5080874;28;20031;-57
2022/08/19 11:13:49;;;;;;;14.75;13.20;;;24.90;84.80;;;;;;5092856;28;20012;-58
2022/08/19 11:16:21;;;;;;;17.58;15.73;;;24.90;85.00;;;;;;5093047;28;20067;-57
2022/08/19 11:18:50;;;;;;;14.27;12.75;;;24.90;84.80;;;;;;5075398;28;20024;-57
2022/08/19 11:21:22;;;;;;;14.88;12.82;;;25.00;85.00;;;;;;5078552;28;20028;-58
2022/08/19 11:23:50;;;;;;;15.77;12.43;;;25.20;84.40;;;;;;5092963;28;20047;-57
2022/08/19 11:26:16;;;;;;;15.80;13.98;;;25.40;84.10;;;;;;5081643;28;20381;-57
2022/08/19 11:28:42;;;;;;;16.45;13.45;;;25.50;83.60;;;;;;5082814;28;20031;-57
2022/08/19 11:31:13;;;;;;;12.77;11.38;;;25.60;83.40;;;;;;5088257;28;20020;-57
2022/08/19 11:33:39;;;;;;;15.30;13.57;;;25.80;83.10;;;;;;5085479;28;20035;-57
2022/08/19 11:36:05;;;;;;;19.83;17.48;;;26.00;83.40;;;;;;5091881;28;20024;-57
2022/08/19 11:38:31;;;;;;;18.05;16.15;;;26.00;81.70;;;;;;5083180;28;20032;-58
2022/08/19 11:40:59;;;;;;;15.70;14.10;;;25.80;81.30;;;;;;5088419;28;20500;-57
2022/08/19 11:43:26;;;;;;;14.43;12.27;;;25.70;81.80;;;;;;5092527;28;20019;-58
2022/08/19 11:45:52;;;;;;;11.23;10.07;;;25.70;82.30;;;;;;5090254;28;20044;-57
2022/08/19 11:48:21;;;;;;;12.63;11.23;;;25.90;82.40;;;;;;5090746;28;20021;-57
2022/08/19 11:50:51;;;;;;;16.25;13.57;;;26.30;82.10;;;;;;5089112;28;20081;-58
2022/08/19 11:53:19;;;;;;;13.20;11.90;;;26.60;81.10;;;;;;5072127;28;20028;-57
2022/08/19 11:55:46;;;;;;;16.90;13.32;;;26.70;80.70;;;;;;5089950;28;20073;-57
2022/08/19 11:58:13;;;;;;;16.85;14.82;;;26.90;79.60;;;;;;5091091;28;20555;-58
2022/08/19 12:00:39;;;;;;;13.90;12.38;;;26.90;78.50;;;;;;5087341;28;20059;-58
2022/08/19 12:03:06;;;;;;;15.32;13.80;;;27.20;78.50;;;;;;5088764;28;20031;-57
2022/08/19 12:05:31;;;;;;;16.40;14.57;;;27.40;77.40;;;;;;5091199;28;20546;-58
2022/08/19 12:07:57;;;;;;;13.98;12.55;;;27.60;76.40;;;;;;5086103;28;20103;-58
2022/08/19 12:10:23;;;;;;;12.85;11.65;;;27.90;76.00;;;;;;5085570;28;20025;-58
2022/08/19 12:12:49;;;;;;;17.75;14.98;;;28.40;75.20;;;;;;5073619;28;20074;-58
2022/08/19 12:15:14;;;;;;;19.17;17.25;;;28.40;72.90;;;;;;5079965;28;20025;-57
2022/08/19 12:17:41;;;;;;;18.67;16.70;;;28.50;72.10;;;;;;5071894;28;20056;-58
2022/08/19 12:20:10;;;;;;;14.60;13.10;;;28.50;71.60;;;;;;5083454;28;20021;-58
2022/08/19 12:22:37;;;;;;;14.60;12.90;;;28.80;72.40;;;;;;5087137;28;20055;-58
2022/08/19 12:25:04;;;;;;;15.45;13.68;;;28.90;71.00;;;;;;5083997;28;20064;-58
2022/08/19 12:27:30;;;;;;;14.07;12.65;;;29.00;70.30;;;;;;5073074;28;20989;-58
2022/08/19 12:29:56;;;;;;;13.80;12.35;;;29.20;70.60;;;;;;5081581;28;20055;-58
2022/08/19 12:32:24;;;;;;;18.20;16.00;;;29.60;70.00;;;;;;5077334;28;20078;-58
2022/08/19 12:34:50;;;;;;;15.57;13.15;;;29.70;67.70;;;;;;5075603;28;20025;-58
2022/08/19 12:37:16;;;;;;;13.23;11.85;;;29.90;67.50;;;;;;5089567;28;20082;-58
2022/08/19 12:39:43;;;;;;;18.55;15.85;;;30.30;67.20;;;;;;5075684;28;20506;-58
2022/08/19 12:42:10;;;;;;;13.77;12.32;;;30.20;65.30;;;;;;5093753;28;20489;-58
2022/08/19 12:44:38;;;;;;;12.52;11.32;;;30.10;66.30;;;;;;5095729;28;20032;-58
2022/08/19 12:47:04;;;;;;;12.77;11.47;;;30.30;66.00;;;;;;5090930;28;20477;-58
2022/08/19 12:49:31;;;;;;;15.18;13.65;;;30.60;65.60;;;;;;5080418;28;20039;-58
2022/08/19 12:51:57;;;;;;;14.75;13.30;;;30.90;64.20;;;;;;5093126;28;20024;-58
2022/08/19 12:54:23;;;;;;;13.50;12.23;;;30.70;63.90;;;;;;5095547;28;20385;-58
2022/08/19 12:56:49;;;;;;;14.45;13.05;;;30.80;64.10;;;;;;5087363;28;20473;-58